Historique des mesures à Cassis (13260), France
Quotidien Résumé Mars 5, 2017 Unités:  Métrique    US   Métrique/US
« Précédent (Jour)
Suivant (Jour) »
Quotidien Hebdomadaire Mensuel Annuel Période au choix
  Maximum: Minimum: Moyenne:
Température: TemperatureC °C 7.4 °C 9.7 °C
Point de rosée: DewpointC °C 3.1 °C 5.3 °C
Humidité: Humidity % 61 % 70 %
Vitesse du vent: 0 km/h 0 km/h 5.5 km/h
Rafales: 0 km/h - -
Vent:- - SW
Pression: PressurehPa hPa 1006.3 hPa -
Précipitations: 1.0 mm    
Historical Graphs
 
 
Mesures pour : Mars 5, 2017
Heure Temperature Point de rosée Pression Vent Vitesse du vent Rafales Humidité Pluie (par heure) Conditions
TemperatureC °C DewpointC °C PressurehPa hPa Calm     Humidity % HourlyPrecipMM mm SoftwareType W/m2
00:11 9.2 °C 4.9 °C 1006.3 hPa Calm   3.4 km/h 75 % 0.0 mm open2300-1.11 W/m2
01:10 8.3 °C 4.1 °C 1006.7 hPa NNW 14 km/h 14 km/h 75 % 0.0 mm open2300-1.11 W/m2
02:11 8.6 °C 3.8 °C 1007.3 hPa NW 9.3 km/h 9.3 km/h 72 % 0.0 mm open2300-1.11 W/m2
03:10 8.6 °C 3.8 °C 1007.3 hPa Calm     72 % 0.0 mm open2300-1.11 W/m2
04:11 8.2 °C 3.7 °C 1007.3 hPa WNW 3.4 km/h 3.4 km/h 73 % 0.0 mm open2300-1.11 W/m2
05:10 7.9 °C 3.4 °C 1007.7 hPa WNW 12.2 km/h 12.2 km/h 73 % 0.0 mm open2300-1.11 W/m2
06:11 7.6 °C 3.3 °C 1008.4 hPa North 3.4 km/h 20.9 km/h 74 % 0.0 mm open2300-1.11 W/m2
07:10 7.4 °C 3.1 °C 1008.4 hPa North 10.3 km/h 10.3 km/h 74 % 0.0 mm open2300-1.11 W/m2
08:11 8.1 °C 3.8 °C 1009.4 hPa NW 9.8 km/h 9.8 km/h 74 % 0.0 mm open2300-1.11 W/m2
09:10 8.9 °C 3.9 °C 1010.0 hPa WNW 14.5 km/h 24.8 km/h 71 % 0.0 mm open2300-1.11 W/m2
10:11 9.6 °C 4.2 °C 1010.0 hPa North 20.9 km/h 29 km/h 69 % 0.0 mm open2300-1.11 W/m2
11:10 11.0 °C 4.2 °C 1010.0 hPa Calm   4.2 km/h 63 % 0.0 mm open2300-1.11 W/m2
12:11 12.1 °C 4.8 °C 1010.0 hPa SW 13.2 km/h 15.6 km/h 61 % 0.0 mm open2300-1.11 W/m2
13:10 12.9 °C 6.0 °C 1010.7 hPa Calm     63 % 0.0 mm open2300-1.11 W/m2
14:11 12.2 °C 6.0 °C 1010.7 hPa Calm     66 % 0.0 mm open2300-1.11 W/m2
15:10 11.8 °C 7.5 °C 1009.7 hPa Calm     75 % 0.5 mm open2300-1.11 W/m2
16:11 12.0 °C 8.3 °C 1010.4 hPa NNW 4.2 km/h 5.1 km/h 78 % 0.5 mm open2300-1.11 W/m2
17:10 11.9 °C 8.2 °C 1010.0 hPa Calm     78 % 0.0 mm open2300-1.11 W/m2
18:11 11.6 °C 8.1 °C 1010.0 hPa WNW 3.4 km/h 3.4 km/h 79 % 0.0 mm open2300-1.11 W/m2
19:10 11.6 °C 7.9 °C 1010.7 hPa North 3.4 km/h 12.2 km/h 78 % 0.0 mm open2300-1.11 W/m2
20:11 10.9 °C 7.4 °C 1011.7 hPa NNW 3.4 km/h 8.9 km/h 79 % 0.0 mm open2300-1.11 W/m2
21:10 10.4 °C 6.7 °C 1012.1 hPa NNW 3.4 km/h 5.1 km/h 78 % 0.0 mm open2300-1.11 W/m2
22:11 10.5 °C 7.0 °C 1012.1 hPa NNW 6.4 km/h 7.6 km/h 79 % 0.0 mm open2300-1.11 W/m2
23:10 10.8 °C 7.3 °C 1011.7 hPa North 3.4 km/h 7.6 km/h 79 % 0.0 mm open2300-1.11 W/m2
Observations météo à CASSIS
WU-History script by Weather Underground - 1 mb